Guest svirkkul

simun keli EFHK:lla

7 viestiä aiheessa

Lensin just vfinn lennon helsingistä riikaan ja lähtiessä simun oma real weather ja activesky näyttivät tällaista keliä. Lunta tulee :o

 

[ Attachment removed / expired ]

 

Katsoisko joku miltä keli itsellä näyttää ja raportois niin selviäis onko mulla vai jossain muulla vikaa?

 

ActiveSkyn metar näyttää tältä

EFHK 120220Z 31010KT 8000 -SNRA FEW010 BKN014 01/M01 Q0995 TEMPO BKN015

 

Edit: Malmilla

EFHF 120220Z AUTO 30009KT 270V330 9999 -RA BKN011 02/00 Q0996 Nyt ei Jummarra >:(

Jaa viesti


Link to post
Jaa muulla sivustolla

Et kai käytä FS:n Real Weatheria ja Active Skyta yhtäaikaa? Toisen käyttäminen riittää.

 

Juu en käyttäny.

 

Edit: Käynnistin simun uudelleen ja nyt näyttäis simun oma real weather toimivan. wind 115/12 eli jälleen vikaa active skyn systeemeissä kuten ennenkin . Nyt on muuten mukavat tuulet tulla efhk:lle laskuun.

Jaa viesti


Link to post
Jaa muulla sivustolla

Luo uusi käyttäjätunnus tai kirjaudu sisään

Sinun täytyy olla jäsen osallistuaksesi keskusteluun

Luo käyttäjätili

Rekisteröi uusi käyttäjätili helposti ja nopeasti!


Luo uusi käyttäjätili

Kirjaudu sisään

Sinulla on jo käyttäjätili?


Kirjaudu sisään